sensor_id;sensor_type;location;lat;lon;timestamp;pressure;altitude;pressure_sealevel;temperature;humidity
15750;BME280;7976;52.526;13.326;2023-02-11T00:01:18;102468.50;;;4.69;76.46
15750;BME280;7976;52.526;13.326;2023-02-11T00:03:45;102475.47;;;4.70;76.31
15750;BME280;7976;52.526;13.326;2023-02-11T00:06:12;102469.41;;;4.69;76.31
15750;BME280;7976;52.526;13.326;2023-02-11T00:08:39;102466.81;;;4.69;76.43
15750;BME280;7976;52.526;13.326;2023-02-11T00:11:07;102490.13;;;4.69;76.49
15750;BME280;7976;52.526;13.326;2023-02-11T00:13:34;102497.88;;;4.66;76.63
15750;BME280;7976;52.526;13.326;2023-02-11T00:16:06;102495.25;;;4.65;76.41
15750;BME280;7976;52.526;13.326;2023-02-11T00:18:35;102507.34;;;4.64;76.73
15750;BME280;7976;52.526;13.326;2023-02-11T00:21:06;102503.00;;;4.63;76.71
15750;BME280;7976;52.526;13.326;2023-02-11T00:23:33;102511.63;;;4.64;76.92
15750;BME280;7976;52.526;13.326;2023-02-11T00:26:00;102487.47;;;4.65;76.94
15750;BME280;7976;52.526;13.326;2023-02-11T00:28:27;102477.09;;;4.65;77.07
15750;BME280;7976;52.526;13.326;2023-02-11T00:30:55;102468.50;;;4.67;77.44
15750;BME280;7976;52.526;13.326;2023-02-11T00:33:22;102466.78;;;4.68;76.92
15750;BME280;7976;52.526;13.326;2023-02-11T00:35:51;102459.91;;;4.70;77.01
15750;BME280;7976;52.526;13.326;2023-02-11T00:38:18;102458.22;;;4.73;77.08
15750;BME280;7976;52.526;13.326;2023-02-11T00:40:44;102445.28;;;4.75;77.13
15750;BME280;7976;52.526;13.326;2023-02-11T00:43:11;102463.50;;;4.81;77.01
15750;BME280;7976;52.526;13.326;2023-02-11T00:45:38;102465.28;;;4.83;77.16
15750;BME280;7976;52.526;13.326;2023-02-11T00:48:05;102476.50;;;4.84;77.08
15750;BME280;7976;52.526;13.326;2023-02-11T00:50:32;102488.66;;;4.86;76.99
15750;BME280;7976;52.526;13.326;2023-02-11T00:53:00;102487.81;;;4.89;76.95
15750;BME280;7976;52.526;13.326;2023-02-11T00:55:28;102476.59;;;4.88;77.04
15750;BME280;7976;52.526;13.326;2023-02-11T00:57:55;102478.31;;;4.89;77.01
15750;BME280;7976;52.526;13.326;2023-02-11T01:00:23;102476.63;;;4.90;77.09
15750;BME280;7976;52.526;13.326;2023-02-11T01:02:50;102469.72;;;4.90;77.17
15750;BME280;7976;52.526;13.326;2023-02-11T01:05:18;102465.38;;;4.91;77.25
15750;BME280;7976;52.526;13.326;2023-02-11T01:07:47;102446.41;;;4.92;77.16
15750;BME280;7976;52.526;13.326;2023-02-11T01:10:16;102441.22;;;4.93;77.08
15750;BME280;7976;52.526;13.326;2023-02-11T01:12:43;102439.56;;;4.98;77.20
15750;BME280;7976;52.526;13.326;2023-02-11T01:15:13;102433.50;;;4.99;77.36
15750;BME280;7976;52.526;13.326;2023-02-11T01:17:40;102415.34;;;4.98;77.42
15750;BME280;7976;52.526;13.326;2023-02-11T01:20:14;102405.00;;;4.99;77.66
15750;BME280;7976;52.526;13.326;2023-02-11T01:22:41;102407.63;;;5.02;77.82
15750;BME280;7976;52.526;13.326;2023-02-11T01:25:08;102407.59;;;5.01;77.95
15750;BME280;7976;52.526;13.326;2023-02-11T01:27:37;102407.56;;;4.99;78.02
15750;BME280;7976;52.526;13.326;2023-02-11T01:30:06;102400.66;;;4.98;78.08
15750;BME280;7976;52.526;13.326;2023-02-11T01:32:35;102404.97;;;4.98;78.26
15750;BME280;7976;52.526;13.326;2023-02-11T01:35:02;102392.00;;;4.96;78.14
15750;BME280;7976;52.526;13.326;2023-02-11T01:37:32;102404.16;;;5.00;78.34
15750;BME280;7976;52.526;13.326;2023-02-11T01:40:00;102406.69;;;4.99;77.93
15750;BME280;7976;52.526;13.326;2023-02-11T01:42:27;102392.91;;;5.01;78.15
15750;BME280;7976;52.526;13.326;2023-02-11T01:44:57;102390.31;;;5.01;78.00
15750;BME280;7976;52.526;13.326;2023-02-11T01:47:24;102379.16;;;5.05;78.06
15750;BME280;7976;52.526;13.326;2023-02-11T01:49:56;102360.13;;;5.08;78.05
15750;BME280;7976;52.526;13.326;2023-02-11T01:52:28;102365.31;;;5.08;78.05
15750;BME280;7976;52.526;13.326;2023-02-11T01:55:02;102358.44;;;5.10;78.09
15750;BME280;7976;52.526;13.326;2023-02-11T01:57:52;102380.09;;;5.13;77.93
15750;BME280;7976;52.526;13.326;2023-02-11T02:00:26;102373.22;;;5.16;78.19
15750;BME280;7976;52.526;13.326;2023-02-11T02:03:02;102368.84;;;5.14;77.95
15750;BME280;7976;52.526;13.326;2023-02-11T02:05:36;102361.16;;;5.21;78.33
15750;BME280;7976;52.526;13.326;2023-02-11T02:08:15;102350.78;;;5.22;78.09
15750;BME280;7976;52.526;13.326;2023-02-11T02:10:46;102361.16;;;5.22;78.28
15750;BME280;7976;52.526;13.326;2023-02-11T02:13:15;102366.38;;;5.25;78.16
15750;BME280;7976;52.526;13.326;2023-02-11T02:15:49;102368.13;;;5.26;78.40
15750;BME280;7976;52.526;13.326;2023-02-11T02:18:38;102362.09;;;5.29;78.31
15750;BME280;7976;52.526;13.326;2023-02-11T02:24:37;102360.38;;;5.29;78.41
15750;BME280;7976;52.526;13.326;2023-02-11T02:27:41;102356.06;;;5.30;78.74
15750;BME280;7976;52.526;13.326;2023-02-11T02:30:38;102354.34;;;5.32;78.77
15750;BME280;7976;52.526;13.326;2023-02-11T02:33:32;102358.72;;;5.36;78.84
15750;BME280;7976;52.526;13.326;2023-02-11T02:36:14;102353.56;;;5.37;78.69
15750;BME280;7976;52.526;13.326;2023-02-11T02:38:51;102351.81;;;5.38;78.82
15750;BME280;7976;52.526;13.326;2023-02-11T02:41:23;102344.00;;;5.38;78.66
15750;BME280;7976;52.526;13.326;2023-02-11T02:43:54;102328.44;;;5.38;79.00
15750;BME280;7976;52.526;13.326;2023-02-11T02:46:25;102332.81;;;5.39;79.07
15750;BME280;7976;52.526;13.326;2023-02-11T02:48:54;102313.75;;;5.38;79.01
15750;BME280;7976;52.526;13.326;2023-02-11T02:52:05;102322.41;;;5.39;79.26
15750;BME280;7976;52.526;13.326;2023-02-11T02:55:03;102328.50;;;5.41;79.49
15750;BME280;7976;52.526;13.326;2023-02-11T02:57:49;102331.09;;;5.42;79.33
15750;BME280;7976;52.526;13.326;2023-02-11T03:00:28;102317.25;;;5.42;79.45
15750;BME280;7976;52.526;13.326;2023-02-11T03:03:21;102303.41;;;5.43;79.50
15750;BME280;7976;52.526;13.326;2023-02-11T03:06:00;102311.25;;;5.46;79.69
15750;BME280;7976;52.526;13.326;2023-02-11T03:08:37;102305.16;;;5.44;79.54
15750;BME280;7976;52.526;13.326;2023-02-11T03:11:06;102308.63;;;5.44;79.74
15750;BME280;7976;52.526;13.326;2023-02-11T03:13:38;102311.19;;;5.43;79.92
15750;BME280;7976;52.526;13.326;2023-02-11T03:16:11;102306.00;;;5.43;79.97
15750;BME280;7976;52.526;13.326;2023-02-11T03:18:43;102303.44;;;5.44;80.12
15750;BME280;7976;52.526;13.326;2023-02-11T03:21:17;102302.56;;;5.45;80.09
15750;BME280;7976;52.526;13.326;2023-02-11T03:23:50;102299.09;;;5.45;80.47
15750;BME280;7976;52.526;13.326;2023-02-11T03:26:25;102306.06;;;5.46;80.41
15750;BME280;7976;52.526;13.326;2023-02-11T03:29:01;102306.06;;;5.46;80.36
15750;BME280;7976;52.526;13.326;2023-02-11T03:31:38;102298.25;;;5.44;80.60
15750;BME280;7976;52.526;13.326;2023-02-11T03:34:12;102297.38;;;5.44;80.75
15750;BME280;7976;52.526;13.326;2023-02-11T03:36:49;102305.19;;;5.47;80.86
15750;BME280;7976;52.526;13.326;2023-02-11T03:39:23;102306.06;;;5.49;80.63
15750;BME280;7976;52.526;13.326;2023-02-11T03:41:55;102302.63;;;5.50;80.87
15750;BME280;7976;52.526;13.326;2023-02-11T03:44:30;102299.19;;;5.51;80.83
15750;BME280;7976;52.526;13.326;2023-02-11T03:47:02;102296.59;;;5.51;81.09
15750;BME280;7976;52.526;13.326;2023-02-11T03:49:32;102288.78;;;5.51;81.16
15750;BME280;7976;52.526;13.326;2023-02-11T03:52:05;102300.03;;;5.53;81.24
15750;BME280;7976;52.526;13.326;2023-02-11T03:54:37;102301.78;;;5.52;81.12
15750;BME280;7976;52.526;13.326;2023-02-11T03:57:06;102299.19;;;5.54;81.29
15750;BME280;7976;52.526;13.326;2023-02-11T03:59:52;102307.00;;;5.55;81.27
15750;BME280;7976;52.526;13.326;2023-02-11T04:02:23;102307.00;;;5.55;81.00
15750;BME280;7976;52.526;13.326;2023-02-11T04:04:50;102305.28;;;5.54;81.42
15750;BME280;7976;52.526;13.326;2023-02-11T04:07:19;102300.09;;;5.56;81.38
15750;BME280;7976;52.526;13.326;2023-02-11T04:09:45;102303.53;;;5.58;81.45
15750;BME280;7976;52.526;13.326;2023-02-11T04:12:12;102290.56;;;5.58;81.82
15750;BME280;7976;52.526;13.326;2023-02-11T04:14:39;102300.09;;;5.59;81.89
15750;BME280;7976;52.526;13.326;2023-02-11T04:17:06;102298.41;;;5.61;81.92
15750;BME280;7976;52.526;13.326;2023-02-11T04:19:33;102289.75;;;5.62;81.81
15750;BME280;7976;52.526;13.326;2023-02-11T04:22:00;102298.41;;;5.61;81.85
15750;BME280;7976;52.526;13.326;2023-02-11T04:24:29;102307.91;;;5.62;82.05
15750;BME280;7976;52.526;13.326;2023-02-11T04:26:56;102304.44;;;5.61;82.32
15750;BME280;7976;52.526;13.326;2023-02-11T04:29:23;102294.03;;;5.60;82.55
15750;BME280;7976;52.526;13.326;2023-02-11T04:31:50;102304.44;;;5.63;82.61
15750;BME280;7976;52.526;13.326;2023-02-11T04:34:17;102304.44;;;5.63;82.98
15750;BME280;7976;52.526;13.326;2023-02-11T04:36:44;102311.41;;;5.64;82.79
15750;BME280;7976;52.526;13.326;2023-02-11T04:39:11;102300.13;;;5.63;82.90
15750;BME280;7976;52.526;13.326;2023-02-11T04:41:39;102295.81;;;5.62;83.15
15750;BME280;7976;52.526;13.326;2023-02-11T04:44:06;102289.72;;;5.60;83.34
15750;BME280;7976;52.526;13.326;2023-02-11T04:46:33;102283.66;;;5.60;83.33
15750;BME280;7976;52.526;13.326;2023-02-11T04:49:00;102284.53;;;5.60;83.76
15750;BME280;7976;52.526;13.326;2023-02-11T04:51:28;102280.22;;;5.61;83.96
15750;BME280;7976;52.526;13.326;2023-02-11T04:53:55;102276.75;;;5.62;84.18
15750;BME280;7976;52.526;13.326;2023-02-11T04:56:21;102279.38;;;5.63;84.27
15750;BME280;7976;52.526;13.326;2023-02-11T04:58:49;102268.09;;;5.63;84.29
15750;BME280;7976;52.526;13.326;2023-02-11T05:01:16;102267.25;;;5.61;84.40
15750;BME280;7976;52.526;13.326;2023-02-11T05:03:43;102263.78;;;5.60;84.56
15750;BME280;7976;52.526;13.326;2023-02-11T05:06:10;102256.88;;;5.61;84.74
15750;BME280;7976;52.526;13.326;2023-02-11T05:08:38;102257.69;;;5.60;85.06
15750;BME280;7976;52.526;13.326;2023-02-11T05:11:06;102260.28;;;5.60;85.39
15750;BME280;7976;52.526;13.326;2023-02-11T05:13:33;102250.78;;;5.57;85.23
15750;BME280;7976;52.526;13.326;2023-02-11T05:16:01;102243.81;;;5.56;85.56
15750;BME280;7976;52.526;13.326;2023-02-11T05:18:28;102248.16;;;5.56;85.66
15750;BME280;7976;52.526;13.326;2023-02-11T05:20:55;102236.91;;;5.55;86.07
15750;BME280;7976;52.526;13.326;2023-02-11T05:23:22;102222.19;;;5.54;86.56
15750;BME280;7976;52.526;13.326;2023-02-11T05:25:49;102226.53;;;5.60;86.45
15750;BME280;7976;52.526;13.326;2023-02-11T05:28:17;102219.66;;;5.62;86.51
15750;BME280;7976;52.526;13.326;2023-02-11T05:30:44;102224.00;;;5.64;86.61
15750;BME280;7976;52.526;13.326;2023-02-11T05:33:12;102215.34;;;5.65;86.48
15750;BME280;7976;52.526;13.326;2023-02-11T05:35:39;102223.13;;;5.65;86.63
15750;BME280;7976;52.526;13.326;2023-02-11T05:38:05;102214.47;;;5.66;86.76
15750;BME280;7976;52.526;13.326;2023-02-11T05:40:32;102207.56;;;5.67;86.92
15750;BME280;7976;52.526;13.326;2023-02-11T05:42:59;102198.06;;;5.67;87.27
15750;BME280;7976;52.526;13.326;2023-02-11T05:45:27;102207.56;;;5.67;87.45
15750;BME280;7976;52.526;13.326;2023-02-11T05:47:53;102196.31;;;5.66;87.15
15750;BME280;7976;52.526;13.326;2023-02-11T05:50:22;102187.66;;;5.64;87.56
15750;BME280;7976;52.526;13.326;2023-02-11T05:52:51;102196.31;;;5.66;87.83
15750;BME280;7976;52.526;13.326;2023-02-11T05:55:18;102199.78;;;5.67;88.19
15750;BME280;7976;52.526;13.326;2023-02-11T05:57:45;102197.19;;;5.67;88.08
15750;BME280;7976;52.526;13.326;2023-02-11T06:00:14;102209.28;;;5.65;88.29
15750;BME280;7976;52.526;13.326;2023-02-11T06:02:42;102205.84;;;5.64;88.63
15750;BME280;7976;52.526;13.326;2023-02-11T06:05:09;102204.09;;;5.65;89.03
15750;BME280;7976;52.526;13.326;2023-02-11T06:07:37;102215.34;;;5.68;89.35
15750;BME280;7976;52.526;13.326;2023-02-11T06:10:05;102224.91;;;5.69;89.24
15750;BME280;7976;52.526;13.326;2023-02-11T06:12:33;102221.44;;;5.69;89.40
15750;BME280;7976;52.526;13.326;2023-02-11T06:14:59;102217.13;;;5.69;89.64
15750;BME280;7976;52.526;13.326;2023-02-11T06:17:26;102212.78;;;5.70;89.74
15750;BME280;7976;52.526;13.326;2023-02-11T06:19:56;102214.53;;;5.71;89.96
15750;BME280;7976;52.526;13.326;2023-02-11T06:22:23;102217.13;;;5.72;90.25
15750;BME280;7976;52.526;13.326;2023-02-11T06:24:52;102218.03;;;5.74;90.39
15750;BME280;7976;52.526;13.326;2023-02-11T06:27:19;102220.63;;;5.76;90.68
15750;BME280;7976;52.526;13.326;2023-02-11T06:29:46;102211.09;;;5.78;90.49
15750;BME280;7976;52.526;13.326;2023-02-11T06:32:14;102207.66;;;5.80;90.73
15750;BME280;7976;52.526;13.326;2023-02-11T06:34:41;102197.28;;;5.82;90.48
15750;BME280;7976;52.526;13.326;2023-02-11T06:37:07;102195.53;;;5.81;90.53
15750;BME280;7976;52.526;13.326;2023-02-11T06:39:35;102193.00;;;5.82;90.92
15750;BME280;7976;52.526;13.326;2023-02-11T06:42:04;102175.66;;;5.83;91.05
15750;BME280;7976;52.526;13.326;2023-02-11T06:44:31;102185.22;;;5.84;91.05
15750;BME280;7976;52.526;13.326;2023-02-11T06:46:57;102187.81;;;5.84;91.48
15750;BME280;7976;52.526;13.326;2023-02-11T06:49:24;102187.81;;;5.85;91.50
15750;BME280;7976;52.526;13.326;2023-02-11T06:51:51;102193.00;;;5.85;91.85
15750;BME280;7976;52.526;13.326;2023-02-11T06:54:18;102199.91;;;5.86;91.87
15750;BME280;7976;52.526;13.326;2023-02-11T06:56:45;102193.00;;;5.85;92.13
15750;BME280;7976;52.526;13.326;2023-02-11T06:59:14;102201.69;;;5.87;91.90
15750;BME280;7976;52.526;13.326;2023-02-11T07:01:42;102201.69;;;5.90;92.38
15750;BME280;7976;52.526;13.326;2023-02-11T07:04:09;102200.81;;;5.93;92.58
15750;BME280;7976;52.526;13.326;2023-02-11T07:06:36;102192.19;;;5.95;92.66
15750;BME280;7976;52.526;13.326;2023-02-11T07:09:04;102193.91;;;5.98;92.89
15750;BME280;7976;52.526;13.326;2023-02-11T07:11:32;102184.41;;;6.00;92.98
15750;BME280;7976;52.526;13.326;2023-02-11T07:14:02;102189.63;;;6.03;93.21
15750;BME280;7976;52.526;13.326;2023-02-11T07:16:31;102184.47;;;6.06;93.46
15750;BME280;7976;52.526;13.326;2023-02-11T07:18:58;102192.25;;;6.09;93.52
15750;BME280;7976;52.526;13.326;2023-02-11T07:21:25;102183.59;;;6.13;93.70
15750;BME280;7976;52.526;13.326;2023-02-11T07:23:52;102183.63;;;6.16;93.56
15750;BME280;7976;52.526;13.326;2023-02-11T07:26:21;102183.66;;;6.20;93.84
15750;BME280;7976;52.526;13.326;2023-02-11T07:28:49;102181.94;;;6.24;93.81
15750;BME280;7976;52.526;13.326;2023-02-11T07:31:18;102177.63;;;6.27;93.44
15750;BME280;7976;52.526;13.326;2023-02-11T07:33:50;102179.34;;;6.28;94.01
15750;BME280;7976;52.526;13.326;2023-02-11T07:36:17;102167.22;;;6.30;93.99
15750;BME280;7976;52.526;13.326;2023-02-11T07:38:44;102161.19;;;6.36;93.60
15750;BME280;7976;52.526;13.326;2023-02-11T07:41:14;102165.50;;;6.40;93.87
15750;BME280;7976;52.526;13.326;2023-02-11T07:43:42;102172.47;;;6.44;93.88
15750;BME280;7976;52.526;13.326;2023-02-11T07:46:11;102167.28;;;6.47;93.76
15750;BME280;7976;52.526;13.326;2023-02-11T07:48:39;102175.06;;;6.49;93.61
15750;BME280;7976;52.526;13.326;2023-02-11T07:51:11;102168.16;;;6.51;93.63
15750;BME280;7976;52.526;13.326;2023-02-11T07:53:38;102164.69;;;6.53;93.75
15750;BME280;7976;52.526;13.326;2023-02-11T07:56:08;102175.06;;;6.53;93.62
15750;BME280;7976;52.526;13.326;2023-02-11T07:58:35;102181.16;;;6.54;93.31
15750;BME280;7976;52.526;13.326;2023-02-11T08:01:04;102190.72;;;6.55;93.46
15750;BME280;7976;52.526;13.326;2023-02-11T08:03:33;102170.75;;;6.54;93.51
15750;BME280;7976;52.526;13.326;2023-02-11T08:06:03;102161.22;;;6.56;93.27
15750;BME280;7976;52.526;13.326;2023-02-11T08:08:31;102171.63;;;6.57;93.75
15750;BME280;7976;52.526;13.326;2023-02-11T08:11:05;102188.09;;;6.58;93.16
15750;BME280;7976;52.526;13.326;2023-02-11T08:13:34;102191.56;;;6.57;93.08
15750;BME280;7976;52.526;13.326;2023-02-11T08:16:01;102200.22;;;6.57;93.25
15750;BME280;7976;52.526;13.326;2023-02-11T08:18:28;102218.44;;;6.60;93.21
15750;BME280;7976;52.526;13.326;2023-02-11T08:20:56;102213.25;;;6.60;93.09
15750;BME280;7976;52.526;13.326;2023-02-11T08:23:23;102226.25;;;6.63;93.20
15750;BME280;7976;52.526;13.326;2023-02-11T08:26:00;102223.69;;;6.65;93.20
15750;BME280;7976;52.526;13.326;2023-02-11T08:28:27;102214.13;;;6.65;93.22
15750;BME280;7976;52.526;13.326;2023-02-11T08:30:54;102210.63;;;6.63;93.12
15750;BME280;7976;52.526;13.326;2023-02-11T08:33:21;102215.84;;;6.63;93.24
15750;BME280;7976;52.526;13.326;2023-02-11T08:35:48;102215.84;;;6.63;93.38
15750;BME280;7976;52.526;13.326;2023-02-11T08:38:15;102225.41;;;6.63;93.36
15750;BME280;7976;52.526;13.326;2023-02-11T08:40:42;102222.78;;;6.61;93.67
15750;BME280;7976;52.526;13.326;2023-02-11T08:43:10;102229.72;;;6.64;93.62
15750;BME280;7976;52.526;13.326;2023-02-11T08:45:37;102238.41;;;6.64;93.68
15750;BME280;7976;52.526;13.326;2023-02-11T08:48:05;102240.13;;;6.64;94.04
15750;BME280;7976;52.526;13.326;2023-02-11T08:50:32;102226.28;;;6.65;94.05
15750;BME280;7976;52.526;13.326;2023-02-11T08:52:59;102202.84;;;6.63;94.41
15750;BME280;7976;52.526;13.326;2023-02-11T08:55:26;102209.78;;;6.63;94.22
15750;BME280;7976;52.526;13.326;2023-02-11T08:57:52;102207.19;;;6.64;94.41
15750;BME280;7976;52.526;13.326;2023-02-11T09:00:23;102195.91;;;6.68;94.55
15750;BME280;7976;52.526;13.326;2023-02-11T09:02:50;102206.31;;;6.68;94.40
15750;BME280;7976;52.526;13.326;2023-02-11T09:05:18;102199.41;;;6.70;94.30
15750;BME280;7976;52.526;13.326;2023-02-11T09:07:45;102190.75;;;6.71;94.28
15750;BME280;7976;52.526;13.326;2023-02-11T09:10:12;102190.75;;;6.74;94.39
15750;BME280;7976;52.526;13.326;2023-02-11T09:12:39;102194.19;;;6.73;94.75
15750;BME280;7976;52.526;13.326;2023-02-11T09:15:07;102205.47;;;6.72;94.62
15750;BME280;7976;52.526;13.326;2023-02-11T09:17:35;102210.69;;;6.71;94.43
15750;BME280;7976;52.526;13.326;2023-02-11T09:20:03;102223.69;;;6.69;94.70
15750;BME280;7976;52.526;13.326;2023-02-11T09:22:30;102212.41;;;6.72;94.94
15750;BME280;7976;52.526;13.326;2023-02-11T09:24:57;102227.16;;;6.74;95.14
15750;BME280;7976;52.526;13.326;2023-02-11T09:27:24;102227.16;;;6.76;95.19
15750;BME280;7976;52.526;13.326;2023-02-11T09:29:51;102228.03;;;6.76;95.18
15750;BME280;7976;52.526;13.326;2023-02-11T09:32:18;102215.91;;;6.81;95.24
15750;BME280;7976;52.526;13.326;2023-02-11T09:34:47;102215.03;;;6.81;95.28
15750;BME280;7976;52.526;13.326;2023-02-11T09:37:14;102211.59;;;6.85;95.14
15750;BME280;7976;52.526;13.326;2023-02-11T09:39:45;102228.03;;;6.87;95.20
15750;BME280;7976;52.526;13.326;2023-02-11T09:42:41;102227.19;;;6.88;95.31
15750;BME280;7976;52.526;13.326;2023-02-11T09:45:17;102231.53;;;6.89;95.23
15750;BME280;7976;52.526;13.326;2023-02-11T09:47:52;102242.81;;;6.92;95.35
15750;BME280;7976;52.526;13.326;2023-02-11T09:50:29;102222.88;;;6.97;95.29
15750;BME280;7976;52.526;13.326;2023-02-11T09:53:02;102239.34;;;7.02;95.00
15750;BME280;7976;52.526;13.326;2023-02-11T09:55:33;102254.97;;;7.02;95.19
15750;BME280;7976;52.526;13.326;2023-02-11T09:58:09;102254.97;;;7.04;95.03
15750;BME280;7976;52.526;13.326;2023-02-11T10:00:43;102250.63;;;7.04;94.92
15750;BME280;7976;52.526;13.326;2023-02-11T10:03:39;102269.72;;;7.06;94.92
15750;BME280;7976;52.526;13.326;2023-02-11T10:06:38;102261.06;;;7.06;95.18
15750;BME280;7976;52.526;13.326;2023-02-11T10:09:36;102253.25;;;7.07;95.30
15750;BME280;7976;52.526;13.326;2023-02-11T10:12:23;102254.97;;;7.05;95.24
15750;BME280;7976;52.526;13.326;2023-02-11T10:15:14;102261.94;;;7.08;95.21
15750;BME280;7976;52.526;13.326;2023-02-11T10:18:14;102258.44;;;7.10;95.23
15750;BME280;7976;52.526;13.326;2023-02-11T10:20:53;102248.03;;;7.09;95.40
15750;BME280;7976;52.526;13.326;2023-02-11T10:23:33;102242.84;;;7.04;95.50
15750;BME280;7976;52.526;13.326;2023-02-11T10:26:10;102246.28;;;7.02;95.60
15750;BME280;7976;52.526;13.326;2023-02-11T10:28:41;102257.56;;;7.02;95.85
15750;BME280;7976;52.526;13.326;2023-02-11T10:31:15;102265.38;;;7.02;96.06
15750;BME280;7976;52.526;13.326;2023-02-11T10:33:46;102247.16;;;6.98;96.34
15750;BME280;7976;52.526;13.326;2023-02-11T10:36:20;102280.16;;;7.05;96.46
15750;BME280;7976;52.526;13.326;2023-02-11T10:38:50;102281.88;;;7.06;96.72
15750;BME280;7976;52.526;13.326;2023-02-11T10:41:21;102276.66;;;7.06;96.67
15750;BME280;7976;52.526;13.326;2023-02-11T10:43:50;102264.53;;;7.05;96.87
15750;BME280;7976;52.526;13.326;2023-02-11T10:46:24;102257.56;;;7.05;97.13
15750;BME280;7976;52.526;13.326;2023-02-11T10:48:55;102245.44;;;7.06;97.14
15750;BME280;7976;52.526;13.326;2023-02-11T10:51:25;102239.34;;;7.08;97.40
15750;BME280;7976;52.526;13.326;2023-02-11T10:54:15;102249.75;;;7.08;97.38
15750;BME280;7976;52.526;13.326;2023-02-11T10:56:49;102244.59;;;7.10;97.72
15750;BME280;7976;52.526;13.326;2023-02-11T10:59:26;102249.78;;;7.11;97.97
15750;BME280;7976;52.526;13.326;2023-02-11T11:01:59;102234.19;;;7.11;98.10
15750;BME280;7976;52.526;13.326;2023-02-11T11:04:41;102229.81;;;7.13;98.29
15750;BME280;7976;52.526;13.326;2023-02-11T11:07:17;102222.00;;;7.10;98.42
15750;BME280;7976;52.526;13.326;2023-02-11T11:09:53;102234.19;;;7.11;98.59
15750;BME280;7976;52.526;13.326;2023-02-11T11:12:45;102234.16;;;7.13;98.63
15750;BME280;7976;52.526;13.326;2023-02-11T11:15:17;102241.97;;;7.11;98.85
15750;BME280;7976;52.526;13.326;2023-02-11T11:17:48;102242.00;;;7.10;98.91
15750;BME280;7976;52.526;13.326;2023-02-11T11:20:22;102241.09;;;7.09;99.07
15750;BME280;7976;52.526;13.326;2023-02-11T11:22:53;102241.97;;;7.11;99.26
15750;BME280;7976;52.526;13.326;2023-02-11T11:25:38;102235.03;;;7.10;99.80
15750;BME280;7976;52.526;13.326;2023-02-11T11:28:21;102219.41;;;7.09;99.62
15750;BME280;7976;52.526;13.326;2023-02-11T11:30:52;102214.19;;;7.09;99.74
15750;BME280;7976;52.526;13.326;2023-02-11T11:33:25;102229.81;;;7.13;99.79
15750;BME280;7976;52.526;13.326;2023-02-11T11:36:03;102226.38;;;7.14;100.00
15750;BME280;7976;52.526;13.326;2023-02-11T11:38:37;102227.22;;;7.10;100.00
15750;BME280;7976;52.526;13.326;2023-02-11T11:41:24;102225.50;;;7.11;100.00
15750;BME280;7976;52.526;13.326;2023-02-11T11:44:03;102220.28;;;7.12;100.00
15750;BME280;7976;52.526;13.326;2023-02-11T11:46:34;102232.44;;;7.19;100.00
15750;BME280;7976;52.526;13.326;2023-02-11T11:49:24;102222.03;;;7.19;100.00
15750;BME280;7976;52.526;13.326;2023-02-11T11:52:09;102240.25;;;7.22;100.00
15750;BME280;7976;52.526;13.326;2023-02-11T11:54:39;102228.09;;;7.23;100.00
15750;BME280;7976;52.526;13.326;2023-02-11T11:57:16;102221.16;;;7.23;100.00
15750;BME280;7976;52.526;13.326;2023-02-11T11:59:44;102214.22;;;7.30;100.00
15750;BME280;7976;52.526;13.326;2023-02-11T12:02:39;102223.75;;;7.32;100.00
15750;BME280;7976;52.526;13.326;2023-02-11T12:05:16;102231.56;;;7.34;100.00
15750;BME280;7976;52.526;13.326;2023-02-11T12:08:05;102234.16;;;7.35;100.00
15750;BME280;7976;52.526;13.326;2023-02-11T12:11:01;102229.84;;;7.37;100.00
15750;BME280;7976;52.526;13.326;2023-02-11T12:14:06;102215.97;;;7.43;100.00
15750;BME280;7976;52.526;13.326;2023-02-11T12:16:51;102211.63;;;7.46;100.00
15750;BME280;7976;52.526;13.326;2023-02-11T12:19:51;102210.72;;;7.50;100.00
15750;BME280;7976;52.526;13.326;2023-02-11T12:22:34;102233.31;;;7.54;100.00
15750;BME280;7976;52.526;13.326;2023-02-11T12:25:24;102227.22;;;7.55;100.00
15750;BME280;7976;52.526;13.326;2023-02-11T12:28:09;102222.88;;;7.57;100.00
15750;BME280;7976;52.526;13.326;2023-02-11T12:31:00;102226.38;;;7.58;100.00
15750;BME280;7976;52.526;13.326;2023-02-11T12:33:59;102226.38;;;7.59;100.00
15750;BME280;7976;52.526;13.326;2023-02-11T12:36:49;102225.47;;;7.60;100.00
15750;BME280;7976;52.526;13.326;2023-02-11T12:39:33;102232.44;;;7.64;100.00
15750;BME280;7976;52.526;13.326;2023-02-11T12:42:36;102223.72;;;7.68;100.00
15750;BME280;7976;52.526;13.326;2023-02-11T12:45:39;102224.59;;;7.71;100.00
15750;BME280;7976;52.526;13.326;2023-02-11T12:51:41;102224.63;;;7.75;100.00
15750;BME280;7976;52.526;13.326;2023-02-11T12:54:21;102222.84;;;7.77;100.00
15750;BME280;7976;52.526;13.326;2023-02-11T12:56:58;102231.53;;;7.81;100.00
15750;BME280;7976;52.526;13.326;2023-02-11T12:59:47;102241.09;;;7.82;100.00
15750;BME280;7976;52.526;13.326;2023-02-11T13:02:31;102228.94;;;7.85;100.00
15750;BME280;7976;52.526;13.326;2023-02-11T13:05:22;102234.13;;;7.88;100.00
15750;BME280;7976;52.526;13.326;2023-02-11T13:07:56;102245.44;;;7.92;100.00
15750;BME280;7976;52.526;13.326;2023-02-11T13:10:31;102251.50;;;7.94;100.00
15750;BME280;7976;52.526;13.326;2023-02-11T13:13:02;102256.72;;;7.94;100.00
15750;BME280;7976;52.526;13.326;2023-02-11T13:15:49;102249.75;;;7.93;100.00
15750;BME280;7976;52.526;13.326;2023-02-11T13:18:29;102240.22;;;7.90;100.00
15750;BME280;7976;52.526;13.326;2023-02-11T13:21:18;102241.06;;;7.91;100.00
15750;BME280;7976;52.526;13.326;2023-02-11T13:23:58;102242.81;;;7.95;100.00
15750;BME280;7976;52.526;13.326;2023-02-11T13:26:37;102251.50;;;7.94;100.00
15750;BME280;7976;52.526;13.326;2023-02-11T13:29:22;102254.13;;;7.95;100.00
15750;BME280;7976;52.526;13.326;2023-02-11T13:31:54;102246.31;;;7.94;100.00
15750;BME280;7976;52.526;13.326;2023-02-11T13:34:56;102252.34;;;7.96;100.00
15750;BME280;7976;52.526;13.326;2023-02-11T13:37:28;102261.03;;;7.98;100.00